This is the latest recevied weather packets stored in our database for station/object KG6LPP. If no packets are shown the sender has not sent any weather packets the latest 10 day(s).
| Time | Temp. | Humidity | Pressure | Rain* | Wind** | Luminosity | Snow |
|---|---|---|---|---|---|---|---|
| 1778333405 | 10.56° C | 38% | 1004.3 hPa | 0 mm | - | 25 W/m² | - |
| 1778330704 | 8.89° C | 42% | 1004 hPa | 0 mm | - | 9 W/m² | - |
| 1778328902 | 9.44° C | 37% | 1003.7 hPa | 0 mm | - | 5 W/m² | - |
| 1778328003 | 8.89° C | 39% | 1003.4 hPa | 0 mm | - | 0 W/m² | - |
| 1778321755 | 9.44° C | 36% | 1003 hPa | 0 mm | - | 0 W/m² | - |
| 1778312748 | 14.44° C | 27% | 1002.9 hPa | 0 mm | - | 0 W/m² | - |
| 1778307338 | 11.67° C | 32% | 1003.5 hPa | 0 mm | - | 0 W/m² | - |
| 1778304679 | 12.78° C | 30% | 1003.4 hPa | 0 mm | - | 0 W/m² | - |
| 1778300130 | 12.78° C | 27% | 1004 hPa | 0 mm | - | 0 W/m² | - |
| 1778299231 | 13.33° C | 27% | 1004 hPa | 0 mm | - | 0 W/m² | - |
| 1778297423 | 15° C | 24% | 1003.7 hPa | 0 mm | - | 0 W/m² | - |
| 1778295631 | 15.56° C | 21% | 1003.4 hPa | 0 mm | - | 0 W/m² | - |
| 1778292912 | 19.44° C | 16% | 1002.9 hPa | 0 mm | - | 0 W/m² | - |
| 1778292010 | 20° C | 14% | 1002.7 hPa | 0 mm | - | 0 W/m² | - |
| 1778291106 | 20° C | 16% | 1002.6 hPa | 0 mm | - | 5 W/m² | - |
| 1778289367 | 21.67° C | 15% | 1002.4 hPa | 0 mm | - | 9 W/m² | - |
| 1778286673 | 22.78° C | 14% | 1002.2 hPa | 0 mm | - | 25 W/m² | - |
| 1778281242 | 24.44° C | 14% | 1002.2 hPa | 0 mm | - | 49 W/m² | - |
| 1778272224 | 25° C | 15% | 1003.6 hPa | 0 mm | - | 51 W/m² | - |
| 1778270419 | 23.33° C | 18% | 1004.3 hPa | 0 mm | - | 104 W/m² | - |
| 1778268615 | 23.33° C | 18% | 1004.8 hPa | 0 mm | - | 70 W/m² | - |
| 1778261405 | 21.11° C | 21% | 1006.3 hPa | 0 mm | - | 965 W/m² | - |
| 1778242544 | 11.11° C | 34% | 1007.4 hPa | 0 mm | - | 0 W/m² | - |
| 1778231734 | 10.56° C | 26% | 1008.4 hPa | 0 mm | - | 0 W/m² | - |
| 1778229033 | 11.11° C | 26% | 1009.1 hPa | 0 mm | - | 0 W/m² | - |
* Rain latest hour (hover to see other rain measurements)
** Current wind speed in m/s (hover to see current wind gust speed)